Time;durP1;ratioP1;P1;durP2;ratioP2;P2;SDS_P1;SDS_P2;PMS_P1;PMS_P2;Temp;Humidity;BMP_temperature;BMP_pressure;BME280_temperature;BME280_humidity;BME280_pressure;Samples;Min_cycle;Max_cycle;Signal;HPM_P1;HPM_P2
2023/09/12 00:00:05;;;;;;;6.37;5.83;;;27.70;87.20;;;;;;4959976;28;20987;-67
2023/09/12 00:02:38;;;;;;;6.00;5.50;;;27.70;87.30;;;;;;4961415;28;20430;-68
2023/09/12 00:05:05;;;;;;;6.00;5.40;;;27.70;87.30;;;;;;4944430;28;20433;-68
2023/09/12 00:07:31;;;;;;;6.57;5.97;;;27.70;87.30;;;;;;4960343;28;21287;-68
2023/09/12 00:09:59;;;;;;;6.10;5.60;;;27.60;87.30;;;;;;4958895;28;20441;-68
2023/09/12 00:12:27;;;;;;;6.40;5.80;;;27.60;87.30;;;;;;4961331;28;20414;-68
2023/09/12 00:14:57;;;;;;;6.67;6.07;;;27.60;87.30;;;;;;4943471;28;20493;-68
2023/09/12 00:17:22;;;;;;;6.00;5.50;;;27.60;87.30;;;;;;4959073;28;20509;-69
2023/09/12 00:19:51;;;;;;;6.53;6.03;;;27.60;87.40;;;;;;4958311;28;20894;-68
2023/09/12 00:22:20;;;;;;;6.67;5.63;;;27.60;87.40;;;;;;4924558;29;20493;-68
2023/09/12 00:24:46;;;;;;;6.67;6.00;;;27.60;87.40;;;;;;4943261;28;20179;-68
2023/09/12 00:27:12;;;;;;;7.83;7.03;;;27.60;87.50;;;;;;4961211;28;20410;-68
2023/09/12 00:29:38;;;;;;;8.63;6.37;;;27.50;87.40;;;;;;4959678;28;20516;-68
2023/09/12 00:32:05;;;;;;;7.80;7.00;;;27.50;87.40;;;;;;4961312;28;20428;-69
2023/09/12 00:34:33;;;;;;;7.60;6.80;;;27.50;87.50;;;;;;4959760;28;20520;-67
2023/09/12 00:37:01;;;;;;;7.57;6.73;;;27.50;87.50;;;;;;4974735;28;20466;-67
2023/09/12 00:39:30;;;;;;;7.17;6.53;;;27.50;87.60;;;;;;4942180;28;20510;-68
2023/09/12 00:41:56;;;;;;;8.50;7.63;;;27.50;87.70;;;;;;4943102;28;20429;-67
2023/09/12 00:44:22;;;;;;;7.33;6.73;;;27.50;87.90;;;;;;4960932;28;21204;-68
2023/09/12 00:46:52;;;;;;;7.53;6.53;;;27.40;87.80;;;;;;4943379;28;20557;-67
2023/09/12 00:49:19;;;;;;;7.83;6.47;;;27.50;88.00;;;;;;4959269;28;20847;-68
2023/09/12 00:51:48;;;;;;;9.20;7.87;;;27.50;88.00;;;;;;4959532;28;20419;-67
2023/09/12 00:54:17;;;;;;;7.90;7.20;;;27.40;87.90;;;;;;4945303;28;20430;-68
2023/09/12 00:56:43;;;;;;;8.30;7.40;;;27.40;88.00;;;;;;4959977;28;20959;-68
2023/09/12 00:59:11;;;;;;;9.90;8.27;;;27.40;88.00;;;;;;4959911;28;20484;-68
2023/09/12 01:01:37;;;;;;;8.93;8.00;;;27.40;88.10;;;;;;4960353;28;21246;-68
2023/09/12 01:04:04;;;;;;;8.70;7.80;;;27.40;88.40;;;;;;4942987;28;20414;-68
2023/09/12 01:06:34;;;;;;;7.97;7.27;;;27.30;88.40;;;;;;4942742;28;20460;-68
2023/09/12 01:09:00;;;;;;;8.17;7.33;;;27.30;88.50;;;;;;4960009;28;20422;-68
2023/09/12 01:11:27;;;;;;;8.30;7.60;;;27.30;88.60;;;;;;4926685;28;20427;-67
2023/09/12 01:13:52;;;;;;;8.30;7.50;;;27.30;88.70;;;;;;4940011;28;21030;-68
2023/09/12 01:16:19;;;;;;;8.20;7.40;;;27.30;88.70;;;;;;4936531;28;20533;-68
2023/09/12 01:18:47;;;;;;;12.10;8.00;;;27.30;88.80;;;;;;4939522;28;20223;-68
2023/09/12 01:21:38;;;;;;;9.23;8.27;;;27.30;88.80;;;;;;4939539;28;20428;-68
2023/09/12 01:24:28;;;;;;;9.57;8.60;;;27.30;88.80;;;;;;4941156;28;21144;-67
2023/09/12 01:27:30;;;;;;;8.97;8.10;;;27.30;88.90;;;;;;4958146;28;20533;-67
2023/09/12 01:30:03;;;;;;;10.30;8.70;;;27.20;89.00;;;;;;4942756;28;20433;-67
2023/09/12 01:32:31;;;;;;;10.13;8.83;;;27.20;89.30;;;;;;4958835;28;20418;-67
2023/09/12 01:35:03;;;;;;;11.60;8.10;;;27.20;89.10;;;;;;4949555;28;20527;-69
2023/09/12 01:37:32;;;;;;;13.50;8.97;;;27.20;89.10;;;;;;4924741;28;20469;-68
2023/09/12 01:39:59;;;;;;;9.23;8.23;;;27.20;89.20;;;;;;4927101;28;20458;-67
2023/09/12 01:42:43;;;;;;;9.00;8.10;;;27.20;89.20;;;;;;4927788;28;20435;-68
2023/09/12 01:45:17;;;;;;;8.43;7.67;;;27.20;89.10;;;;;;4955390;28;21030;-68
2023/09/12 01:47:47;;;;;;;9.30;8.27;;;27.20;89.20;;;;;;4923522;29;20801;-68
2023/09/12 01:50:17;;;;;;;9.07;8.17;;;27.10;89.20;;;;;;4939555;28;20558;-67
2023/09/12 01:52:43;;;;;;;12.63;8.77;;;27.10;89.30;;;;;;4939345;28;20418;-68
2023/09/12 01:55:12;;;;;;;9.70;8.80;;;27.10;89.30;;;;;;4929001;28;21069;-67
2023/09/12 01:57:41;;;;;;;10.73;8.87;;;27.10;89.40;;;;;;4942663;28;20458;-68
2023/09/12 02:00:10;;;;;;;14.17;8.70;;;27.10;89.40;;;;;;4958450;28;20470;-69
2023/09/12 02:02:36;;;;;;;8.73;7.80;;;27.10;89.50;;;;;;4958703;28;20812;-68
2023/09/12 02:05:15;;;;;;;10.50;8.83;;;27.10;89.50;;;;;;4942623;28;20424;-68
2023/09/12 02:07:42;;;;;;;9.30;8.20;;;27.10;89.50;;;;;;4959028;28;20540;-67
2023/09/12 02:10:10;;;;;;;9.23;8.43;;;27.00;89.40;;;;;;4953095;28;20449;-68
2023/09/12 02:12:36;;;;;;;9.40;8.50;;;27.00;89.40;;;;;;4940719;28;21034;-68
2023/09/12 02:15:03;;;;;;;10.37;9.30;;;27.00;89.50;;;;;;4923099;29;20426;-68
2023/09/12 02:17:29;;;;;;;8.63;7.83;;;27.00;89.70;;;;;;4939231;28;21177;-67
2023/09/12 02:19:55;;;;;;;9.17;8.33;;;27.00;89.70;;;;;;4942259;28;20477;-67
2023/09/12 02:22:21;;;;;;;11.20;8.90;;;27.00;89.70;;;;;;4942373;28;21365;-67
2023/09/12 02:24:47;;;;;;;9.60;8.03;;;27.00;89.70;;;;;;4941107;28;20443;-67
2023/09/12 02:27:13;;;;;;;9.57;8.67;;;27.00;89.70;;;;;;4959903;28;20438;-68
2023/09/12 02:29:39;;;;;;;9.70;8.83;;;27.00;89.70;;;;;;4958875;28;20966;-68
2023/09/12 02:32:06;;;;;;;9.80;8.90;;;27.00;89.60;;;;;;4959070;28;20491;-67
2023/09/12 02:34:32;;;;;;;13.80;9.30;;;26.90;89.60;;;;;;4942655;28;20539;-68
2023/09/12 02:36:58;;;;;;;9.33;8.43;;;27.00;89.70;;;;;;4932338;28;20454;-68
2023/09/12 02:39:25;;;;;;;8.53;7.83;;;26.90;89.70;;;;;;4942303;28;20438;-68
2023/09/12 02:41:53;;;;;;;8.80;7.90;;;26.90;89.80;;;;;;4956250;28;20984;-68
2023/09/12 02:44:22;;;;;;;9.53;8.43;;;26.90;89.90;;;;;;4926232;29;20438;-67
2023/09/12 02:46:48;;;;;;;9.30;8.50;;;26.90;89.80;;;;;;4942214;28;20470;-68
2023/09/12 02:49:17;;;;;;;9.57;8.63;;;26.90;90.00;;;;;;4942239;29;20489;-67
2023/09/12 02:51:45;;;;;;;9.20;8.37;;;26.90;90.00;;;;;;4942280;29;20454;-67
2023/09/12 02:54:11;;;;;;;9.43;8.60;;;26.90;90.00;;;;;;4941631;28;20465;-68
2023/09/12 02:56:37;;;;;;;9.33;8.43;;;26.90;90.10;;;;;;4941763;28;20512;-68
2023/09/12 02:59:04;;;;;;;9.40;8.50;;;26.80;90.10;;;;;;4960847;28;20430;-68
2023/09/12 03:01:31;;;;;;;9.73;8.77;;;26.80;90.10;;;;;;4945628;28;20418;-67
2023/09/12 03:04:00;;;;;;;9.60;8.70;;;26.80;90.10;;;;;;4962793;28;20892;-68
2023/09/12 03:06:33;;;;;;;10.00;8.97;;;26.80;90.20;;;;;;4961371;28;20422;-68
2023/09/12 03:09:01;;;;;;;8.70;8.00;;;26.80;90.30;;;;;;4945266;28;20449;-67
2023/09/12 03:11:31;;;;;;;9.97;8.97;;;26.80;90.30;;;;;;4944865;28;20446;-67
2023/09/12 03:14:00;;;;;;;10.03;9.10;;;26.80;90.30;;;;;;4928292;28;20430;-68
2023/09/12 03:16:26;;;;;;;9.53;8.60;;;26.70;90.30;;;;;;4952320;28;20503;-68
2023/09/12 03:18:52;;;;;;;10.67;9.70;;;26.70;90.30;;;;;;4929019;28;20462;-67
2023/09/12 03:21:18;;;;;;;10.80;9.50;;;26.70;90.30;;;;;;4962195;28;20437;-67
2023/09/12 03:23:44;;;;;;;10.57;8.80;;;26.70;90.30;;;;;;4944934;28;20426;-66
2023/09/12 03:26:12;;;;;;;11.70;9.33;;;26.70;90.40;;;;;;4944515;28;20430;-68
2023/09/12 03:28:44;;;;;;;10.00;9.10;;;26.70;90.40;;;;;;4960491;28;20449;-68
2023/09/12 03:31:14;;;;;;;10.67;9.67;;;26.70;90.40;;;;;;4927867;28;20427;-67
2023/09/12 03:33:42;;;;;;;9.77;8.93;;;26.70;90.40;;;;;;4960626;28;20425;-67
2023/09/12 03:36:09;;;;;;;10.37;9.47;;;26.70;90.50;;;;;;4954490;28;20430;-68
2023/09/12 03:38:35;;;;;;;10.90;9.80;;;26.70;90.40;;;;;;4925286;29;20470;-68
2023/09/12 03:41:04;;;;;;;10.33;8.70;;;26.60;90.40;;;;;;4941604;28;20419;-67
2023/09/12 03:43:33;;;;;;;11.23;9.97;;;26.60;90.40;;;;;;4925768;29;20415;-67
2023/09/12 03:45:59;;;;;;;11.47;9.30;;;26.60;90.40;;;;;;4941580;28;20470;-68
2023/09/12 03:48:25;;;;;;;10.37;9.27;;;26.60;90.40;;;;;;4931439;28;20555;-68
2023/09/12 03:50:54;;;;;;;10.67;9.67;;;26.60;90.50;;;;;;4960265;28;20410;-68
2023/09/12 03:53:20;;;;;;;10.30;9.30;;;26.60;90.50;;;;;;4941947;28;20439;-67
2023/09/12 03:55:48;;;;;;;9.53;8.67;;;26.60;90.50;;;;;;4920448;29;20534;-68
2023/09/12 03:58:14;;;;;;;11.10;9.00;;;26.60;90.50;;;;;;4941318;29;20474;-68
2023/09/12 04:00:47;;;;;;;9.80;9.00;;;26.50;90.50;;;;;;4941213;28;20435;-67
2023/09/12 04:03:16;;;;;;;10.07;9.17;;;26.50;90.50;;;;;;4924884;29;20469;-68
2023/09/12 04:05:46;;;;;;;10.83;9.67;;;26.50;90.50;;;;;;4924902;29;20447;-68
2023/09/12 04:08:13;;;;;;;10.63;9.70;;;26.50;90.90;;;;;;4924325;28;20511;-68
2023/09/12 04:10:41;;;;;;;11.03;9.83;;;26.50;90.50;;;;;;4924906;29;20430;-68
2023/09/12 04:13:09;;;;;;;9.60;8.47;;;26.50;90.60;;;;;;4940620;28;20474;-67
2023/09/12 04:15:35;;;;;;;12.13;9.43;;;26.50;90.60;;;;;;4940532;29;20996;-68
2023/09/12 04:18:09;;;;;;;11.30;10.27;;;26.40;90.60;;;;;;4940616;29;20454;-68
2023/09/12 04:20:35;;;;;;;10.60;9.70;;;26.40;90.60;;;;;;4941050;28;20486;-68
2023/09/12 04:23:02;;;;;;;10.80;9.73;;;26.40;90.60;;;;;;4972265;28;20430;-68
2023/09/12 04:25:30;;;;;;;10.63;9.53;;;26.40;90.60;;;;;;4944086;28;20437;-68
2023/09/12 04:27:56;;;;;;;11.50;10.50;;;26.40;90.60;;;;;;4960731;28;20469;-69
2023/09/12 04:30:23;;;;;;;11.17;10.20;;;26.40;91.00;;;;;;4926067;28;20473;-68
2023/09/12 04:32:49;;;;;;;12.07;10.10;;;26.40;90.60;;;;;;4953779;28;20437;-68
2023/09/12 04:35:15;;;;;;;10.70;9.80;;;26.40;90.70;;;;;;4933212;28;21065;-69
2023/09/12 04:37:44;;;;;;;10.83;9.83;;;26.40;90.70;;;;;;4961528;28;20466;-70
2023/09/12 04:40:10;;;;;;;10.80;9.53;;;26.40;90.70;;;;;;4960669;28;20801;-69
2023/09/12 04:42:36;;;;;;;10.70;9.70;;;26.30;90.60;;;;;;5001006;23;20950;-86
2023/09/12 04:45:03;;;;;;;10.87;9.87;;;26.30;90.90;;;;;;4978745;28;20496;-88
2023/09/12 04:47:29;;;;;;;10.87;9.87;;;26.30;90.70;;;;;;4965038;28;20479;-88
2023/09/12 04:49:55;;;;;;;10.77;9.87;;;26.30;91.20;;;;;;4965503;28;20817;-87
2023/09/12 04:52:21;;;;;;;10.67;9.70;;;26.30;90.90;;;;;;4970143;28;20493;-86
2023/09/12 04:54:47;;;;;;;10.97;9.87;;;26.30;91.00;;;;;;4969634;28;20425;-85
2023/09/12 04:57:13;;;;;;;10.00;9.10;;;26.20;91.00;;;;;;4970082;28;21627;-89
2023/09/12 04:59:39;;;;;;;11.03;10.07;;;26.30;91.00;;;;;;4953407;28;20973;-86
2023/09/12 05:02:05;;;;;;;10.50;9.50;;;26.20;91.10;;;;;;4937136;28;20426;-89
2023/09/12 05:04:31;;;;;;;10.03;9.10;;;26.30;91.10;;;;;;4969069;28;20186;-84
2023/09/12 05:06:57;;;;;;;10.13;9.33;;;26.20;90.90;;;;;;4952860;28;20437;-88
2023/09/12 05:09:24;;;;;;;10.60;9.50;;;26.20;91.20;;;;;;4953249;28;20434;-90
2023/09/12 05:11:50;;;;;;;10.37;9.47;;;26.20;91.10;;;;;;4953571;28;20759;-89
2023/09/12 05:14:15;;;;;;;9.73;8.93;;;26.20;90.90;;;;;;4969949;28;20450;-92
2023/09/12 05:16:41;;;;;;;10.67;9.77;;;26.20;91.00;;;;;;4989518;28;21183;-89
2023/09/12 05:19:07;;;;;;;11.10;10.13;;;26.20;91.10;;;;;;4988985;28;20440;-89
2023/09/12 05:21:34;;;;;;;10.87;9.43;;;26.20;91.00;;;;;;4969242;28;20434;-84
2023/09/12 05:24:00;;;;;;;10.67;9.67;;;26.10;91.30;;;;;;4968040;28;20461;-85
2023/09/12 05:26:26;;;;;;;10.10;9.20;;;26.20;91.30;;;;;;4975686;28;20492;-85
2023/09/12 05:28:52;;;;;;;10.20;9.30;;;26.10;91.10;;;;;;4969814;28;20535;-82
2023/09/12 05:31:18;;;;;;;10.50;9.50;;;26.10;91.10;;;;;;4982401;28;20914;-89
2023/09/12 05:33:44;;;;;;;10.40;9.43;;;26.10;91.30;;;;;;4970729;28;20529;-85
2023/09/12 05:36:10;;;;;;;10.70;9.80;;;26.10;91.40;;;;;;4987009;28;20901;-88
2023/09/12 05:38:36;;;;;;;10.93;9.80;;;26.10;91.20;;;;;;4970070;28;20476;-87
2023/09/12 05:41:03;;;;;;;10.30;8.60;;;26.10;91.30;;;;;;4987351;28;20444;-89
2023/09/12 05:43:29;;;;;;;10.33;9.43;;;26.10;91.20;;;;;;4971186;28;21074;-88
2023/09/12 05:45:57;;;;;;;10.27;9.37;;;26.10;91.30;;;;;;4971144;28;20490;-86
2023/09/12 05:48:23;;;;;;;12.57;10.10;;;26.10;91.20;;;;;;4954947;28;20436;-89
2023/09/12 05:50:49;;;;;;;9.77;8.97;;;26.10;91.40;;;;;;4986778;28;20444;-86
2023/09/12 05:53:16;;;;;;;10.47;9.47;;;26.00;91.40;;;;;;4979103;28;20453;-86
2023/09/12 05:55:42;;;;;;;10.07;9.17;;;26.00;91.40;;;;;;4984671;28;20467;-86
2023/09/12 05:58:08;;;;;;;9.40;8.60;;;26.00;91.30;;;;;;4939864;28;21050;-87
2023/09/12 06:00:35;;;;;;;10.80;9.70;;;26.00;91.30;;;;;;4963586;28;20422;-90
2023/09/12 06:03:01;;;;;;;11.87;10.77;;;25.70;91.50;;;;;;4970405;28;20463;-87
2023/09/12 06:05:27;;;;;;;15.00;10.70;;;26.00;91.50;;;;;;4969356;28;20449;-87
2023/09/12 06:07:53;;;;;;;12.30;11.20;;;25.90;91.50;;;;;;4987907;28;20433;-84
2023/09/12 06:10:19;;;;;;;12.63;11.40;;;26.00;91.70;;;;;;4990444;28;20194;-85
2023/09/12 06:12:45;;;;;;;13.70;12.30;;;25.90;91.70;;;;;;4989809;28;20467;-84
2023/09/12 06:15:11;;;;;;;12.87;11.50;;;25.90;91.70;;;;;;4990089;28;20914;-85
2023/09/12 06:17:37;;;;;;;13.10;10.23;;;25.90;91.80;;;;;;4992716;28;20225;-84
2023/09/12 06:20:07;;;;;;;16.03;10.30;;;25.90;92.00;;;;;;4976674;28;20433;-83
2023/09/12 06:22:35;;;;;;;15.80;10.30;;;25.80;92.10;;;;;;4993320;28;20436;-85
2023/09/12 06:25:02;;;;;;;18.10;9.93;;;25.80;92.10;;;;;;4992166;28;20483;-86
2023/09/12 06:27:31;;;;;;;10.90;8.03;;;25.80;92.10;;;;;;4991342;28;20451;-87
2023/09/12 06:29:57;;;;;;;9.80;8.80;;;25.70;92.00;;;;;;4960321;28;20437;-86
2023/09/12 06:32:24;;;;;;;11.20;8.73;;;25.70;92.00;;;;;;4977550;28;20428;-87
2023/09/12 06:34:49;;;;;;;8.90;8.00;;;25.70;92.00;;;;;;4993582;28;21221;-88
2023/09/12 06:37:15;;;;;;;10.07;7.97;;;25.70;92.00;;;;;;4992380;28;20527;-88
2023/09/12 06:39:41;;;;;;;9.93;8.93;;;25.70;92.00;;;;;;4992932;28;20444;-87
2023/09/12 06:42:10;;;;;;;9.93;7.00;;;25.70;92.00;;;;;;4961279;28;20429;-88
2023/09/12 06:44:39;;;;;;;8.33;7.50;;;25.70;92.10;;;;;;4977739;28;20960;-86
2023/09/12 06:47:05;;;;;;;7.50;6.77;;;25.70;92.30;;;;;;4986277;28;20439;-87
2023/09/12 06:49:35;;;;;;;7.63;6.90;;;25.70;92.10;;;;;;5003867;28;20439;-88
2023/09/12 06:52:02;;;;;;;8.43;6.07;;;25.70;92.10;;;;;;4962985;28;20592;-87
2023/09/12 06:54:30;;;;;;;7.67;6.93;;;25.60;92.00;;;;;;4996171;28;21154;-85
2023/09/12 06:56:56;;;;;;;9.87;6.37;;;25.60;92.00;;;;;;4998689;28;20482;-88
2023/09/12 06:59:22;;;;;;;8.40;6.50;;;25.60;92.10;;;;;;4995997;28;20429;-89
2023/09/12 07:01:48;;;;;;;8.33;6.00;;;25.60;92.00;;;;;;4977093;28;20425;-88
2023/09/12 07:04:14;;;;;;;7.50;6.80;;;25.60;92.10;;;;;;4977266;28;20452;-88
2023/09/12 07:06:40;;;;;;;7.73;6.97;;;25.60;92.00;;;;;;4977240;28;20444;-87
2023/09/12 07:09:09;;;;;;;8.73;6.70;;;25.60;92.10;;;;;;4994532;28;20425;-88
2023/09/12 07:11:37;;;;;;;7.00;6.33;;;25.60;92.10;;;;;;4994282;28;20420;-88
2023/09/12 07:14:03;;;;;;;8.53;6.37;;;25.60;92.10;;;;;;4977008;28;20417;-88
2023/09/12 07:16:33;;;;;;;6.83;6.17;;;25.50;92.10;;;;;;4993450;28;20210;-87
2023/09/12 07:18:59;;;;;;;7.00;5.80;;;25.50;92.10;;;;;;4994037;28;20465;-89
2023/09/12 07:21:25;;;;;;;8.30;5.90;;;25.50;92.10;;;;;;4994674;28;20425;-88
2023/09/12 07:23:51;;;;;;;6.90;5.77;;;25.50;92.10;;;;;;4978102;28;20948;-89
2023/09/12 07:26:21;;;;;;;6.97;6.30;;;25.50;92.10;;;;;;4977898;28;20512;-88
2023/09/12 07:28:50;;;;;;;8.30;5.83;;;25.50;92.20;;;;;;4993930;28;20432;-89
2023/09/12 07:31:17;;;;;;;9.27;6.50;;;25.50;92.20;;;;;;4993373;28;20429;-90
2023/09/12 07:33:43;;;;;;;5.93;5.33;;;25.50;92.20;;;;;;4977458;28;20312;-87
2023/09/12 07:36:09;;;;;;;5.57;5.07;;;25.50;92.30;;;;;;4960812;28;20453;-90
2023/09/12 07:38:37;;;;;;;6.07;5.47;;;25.40;92.20;;;;;;4994492;28;20808;-88
2023/09/12 07:41:05;;;;;;;6.87;6.10;;;25.40;92.20;;;;;;4993294;28;20429;-89
2023/09/12 07:43:31;;;;;;;7.30;5.30;;;25.40;92.30;;;;;;4993452;28;20449;-90
2023/09/12 07:45:58;;;;;;;5.63;5.13;;;25.40;92.20;;;;;;4977954;28;20427;-88
2023/09/12 07:48:24;;;;;;;5.60;5.10;;;25.40;92.20;;;;;;4993494;28;20882;-89
2023/09/12 07:50:51;;;;;;;5.43;4.93;;;25.40;92.00;;;;;;4976900;28;20435;-91
2023/09/12 07:53:17;;;;;;;6.57;5.90;;;25.40;92.10;;;;;;4961169;28;20436;-88
2023/09/12 07:55:46;;;;;;;7.90;5.73;;;25.40;92.20;;;;;;4993838;28;20460;-88
2023/09/12 07:58:18;;;;;;;7.00;5.13;;;25.40;92.10;;;;;;5004785;28;20969;-86
2023/09/12 08:00:44;;;;;;;5.87;5.03;;;25.40;92.40;;;;;;5002571;28;20452;-87
2023/09/12 08:03:10;;;;;;;5.60;4.97;;;25.40;92.00;;;;;;5001709;28;20528;-86
2023/09/12 08:05:36;;;;;;;6.33;4.50;;;25.40;92.00;;;;;;4976213;28;20441;-90
2023/09/12 08:08:03;;;;;;;5.20;4.70;;;25.40;92.10;;;;;;4960020;28;20444;-88
2023/09/12 08:10:29;;;;;;;5.10;4.60;;;25.40;92.30;;;;;;4992042;28;20495;-89
2023/09/12 08:12:55;;;;;;;5.33;4.80;;;25.40;92.10;;;;;;4975731;28;20424;-88
2023/09/12 08:15:21;;;;;;;5.10;4.60;;;25.30;92.20;;;;;;4992566;28;20453;-89
2023/09/12 08:17:51;;;;;;;4.70;4.27;;;25.30;92.00;;;;;;4992039;28;20649;-89
2023/09/12 08:20:18;;;;;;;4.17;3.87;;;25.30;92.10;;;;;;4975486;28;20255;-85
2023/09/12 08:22:44;;;;;;;6.03;4.27;;;25.40;92.00;;;;;;4990930;28;20442;-87
2023/09/12 08:25:12;;;;;;;6.00;4.97;;;25.30;92.20;;;;;;4974696;28;20443;-88
2023/09/12 08:27:38;;;;;;;4.33;3.83;;;25.30;92.60;;;;;;4991171;28;20444;-89
2023/09/12 08:30:04;;;;;;;4.87;4.30;;;25.30;92.20;;;;;;4958546;28;20425;-89
2023/09/12 08:32:31;;;;;;;4.87;4.37;;;25.30;91.90;;;;;;4990471;28;20508;-85
2023/09/12 08:34:57;;;;;;;3.70;3.40;;;25.30;92.30;;;;;;4958053;28;20467;-88
2023/09/12 08:37:23;;;;;;;5.47;3.50;;;25.30;92.00;;;;;;4973441;28;21152;-86
2023/09/12 08:39:49;;;;;;;6.30;3.37;;;25.30;92.00;;;;;;4990508;28;20453;-89
2023/09/12 08:42:16;;;;;;;3.50;3.30;;;25.30;92.10;;;;;;4989810;28;20193;-88
2023/09/12 08:44:45;;;;;;;4.33;3.27;;;25.20;92.20;;;;;;4990603;28;20209;-89
2023/09/12 08:47:12;;;;;;;3.60;3.33;;;25.30;91.80;;;;;;4990000;28;20520;-88
2023/09/12 08:49:38;;;;;;;4.30;3.37;;;25.30;91.80;;;;;;4990724;28;20436;-88
2023/09/12 08:52:05;;;;;;;4.13;3.47;;;25.30;91.80;;;;;;4989705;28;20452;-88
2023/09/12 08:54:35;;;;;;;4.47;4.07;;;25.30;91.80;;;;;;4990039;28;20456;-89
2023/09/12 08:57:06;;;;;;;3.70;3.40;;;25.30;91.80;;;;;;4973110;28;20480;-88
2023/09/12 08:59:33;;;;;;;4.10;3.80;;;25.30;91.80;;;;;;4988932;28;20421;-87
2023/09/12 09:02:00;;;;;;;5.60;3.40;;;25.30;91.90;;;;;;4956961;28;20433;-89
2023/09/12 09:04:30;;;;;;;4.27;3.60;;;25.30;92.00;;;;;;4989610;28;20455;-92
2023/09/12 09:07:00;;;;;;;3.50;3.20;;;25.30;91.90;;;;;;4989806;28;20471;-90
2023/09/12 09:09:33;;;;;;;3.80;3.50;;;25.30;91.90;;;;;;4988923;28;20425;-87
2023/09/12 09:12:01;;;;;;;3.70;3.40;;;25.30;91.90;;;;;;4989535;28;20425;-90
2023/09/12 09:14:29;;;;;;;3.80;3.10;;;25.30;91.90;;;;;;4985240;28;20555;-88
2023/09/12 09:16:58;;;;;;;3.60;3.30;;;25.40;92.10;;;;;;4969731;28;20418;-88
2023/09/12 09:19:45;;;;;;;3.53;3.27;;;25.40;92.10;;;;;;4973427;28;20441;-88
2023/09/12 09:22:14;;;;;;;3.90;3.60;;;25.40;92.00;;;;;;4957903;28;20484;-85
2023/09/12 09:24:42;;;;;;;3.37;3.07;;;25.40;92.00;;;;;;4982017;28;20422;-84
2023/09/12 09:27:08;;;;;;;4.17;3.37;;;25.40;92.00;;;;;;4973109;28;20450;-87
2023/09/12 09:29:46;;;;;;;3.77;3.40;;;25.40;92.00;;;;;;4968853;28;20441;-87
2023/09/12 09:32:18;;;;;;;3.57;3.27;;;25.40;92.00;;;;;;4968846;28;20445;-88
2023/09/12 09:34:46;;;;;;;3.33;3.13;;;25.40;92.10;;;;;;4968629;28;20418;-85
2023/09/12 09:37:14;;;;;;;3.63;2.90;;;25.40;92.10;;;;;;4974345;28;20461;-88
2023/09/12 09:39:43;;;;;;;3.83;3.00;;;25.40;92.10;;;;;;4987491;28;20452;-88
2023/09/12 09:42:11;;;;;;;4.60;4.20;;;25.50;92.20;;;;;;4987232;28;21006;-89
2023/09/12 09:44:40;;;;;;;3.77;3.47;;;25.50;92.20;;;;;;4955331;28;20437;-87
2023/09/12 09:47:07;;;;;;;3.80;3.50;;;25.50;92.20;;;;;;4968662;28;20453;-86
2023/09/12 09:49:35;;;;;;;3.43;3.23;;;25.50;92.30;;;;;;4970039;28;20433;-88
2023/09/12 09:52:07;;;;;;;3.50;3.30;;;25.50;92.30;;;;;;4950846;28;20444;-86
2023/09/12 09:54:44;;;;;;;4.77;4.00;;;25.50;92.40;;;;;;4992146;28;20470;-86
2023/09/12 09:57:10;;;;;;;4.60;3.53;;;25.50;92.40;;;;;;4991903;28;20586;-85
2023/09/12 09:59:38;;;;;;;3.53;3.33;;;25.50;92.50;;;;;;4974933;28;20540;-88
2023/09/12 10:02:12;;;;;;;4.70;4.10;;;25.50;92.40;;;;;;4987914;28;20183;-87
2023/09/12 10:04:38;;;;;;;7.00;5.83;;;25.60;92.30;;;;;;4979546;28;20452;-85
2023/09/12 10:07:07;;;;;;;11.00;5.97;;;25.50;92.40;;;;;;4985719;28;20460;-86
2023/09/12 10:09:36;;;;;;;5.33;4.83;;;25.60;93.30;;;;;;4990566;28;20437;-88
2023/09/12 10:12:05;;;;;;;6.23;5.63;;;25.50;93.20;;;;;;4990097;28;21098;-87
2023/09/12 10:14:33;;;;;;;6.10;5.50;;;25.50;93.10;;;;;;4991088;28;20465;-86
2023/09/12 10:18:03;;;;;;;8.80;5.60;;;25.60;93.50;;;;;;4989636;28;20455;-88
2023/09/12 10:21:04;;;;;;;6.47;5.53;;;25.60;93.70;;;;;;4990020;28;20961;-87
2023/09/12 10:23:41;;;;;;;6.60;5.30;;;25.60;93.70;;;;;;4990280;28;20507;-88
2023/09/12 10:26:12;;;;;;;7.00;6.40;;;25.60;93.70;;;;;;4989708;28;21216;-87
2023/09/12 10:28:43;;;;;;;6.80;6.07;;;25.60;93.70;;;;;;4989100;28;21027;-88
2023/09/12 10:31:15;;;;;;;7.20;6.50;;;25.60;93.70;;;;;;4989940;28;20456;-85
2023/09/12 10:33:44;;;;;;;11.07;5.97;;;25.60;93.70;;;;;;4990929;28;20456;-88
2023/09/12 10:36:11;;;;;;;7.53;6.83;;;25.70;93.80;;;;;;4989357;28;20854;-87
2023/09/12 10:38:44;;;;;;;8.00;7.20;;;25.70;93.80;;;;;;4990978;28;21111;-87
2023/09/12 10:41:16;;;;;;;8.17;7.47;;;25.70;94.00;;;;;;4973518;28;20421;-88
2023/09/12 10:43:49;;;;;;;8.33;7.50;;;25.70;94.00;;;;;;4989675;28;20467;-88
2023/09/12 10:46:21;;;;;;;8.63;7.40;;;25.70;94.10;;;;;;4989465;28;20442;-88
2023/09/12 10:48:50;;;;;;;9.80;8.10;;;25.70;94.00;;;;;;4976745;28;20426;-87
2023/09/12 10:51:22;;;;;;;8.43;7.53;;;25.80;94.00;;;;;;4985460;28;20449;-90
2023/09/12 10:53:50;;;;;;;8.90;8.00;;;25.80;94.00;;;;;;4994233;28;20445;-87
2023/09/12 10:56:19;;;;;;;7.87;7.07;;;25.80;93.90;;;;;;4990899;28;20447;-88
2023/09/12 10:59:48;;;;;;;7.30;6.67;;;25.80;93.80;;;;;;4973268;28;20490;-88
2023/09/12 11:01:52;;;;;;;10.73;8.30;;;25.80;93.70;;;;;;4979464;28;20802;-88
2023/09/12 11:04:46;;;;;;;8.13;7.40;;;25.90;94.00;;;;;;4989568;28;20448;-87
2023/09/12 11:07:33;;;;;;;9.20;8.30;;;25.90;93.80;;;;;;4990404;28;20421;-87
2023/09/12 11:10:18;;;;;;;8.53;7.53;;;25.90;93.70;;;;;;4989877;28;21033;-86
2023/09/12 11:12:48;;;;;;;8.63;7.73;;;25.80;93.80;;;;;;4989280;28;21484;-84
2023/09/12 11:15:20;;;;;;;11.87;8.20;;;25.90;93.80;;;;;;4988808;28;20517;-86
2023/09/12 11:17:50;;;;;;;8.40;7.50;;;25.90;93.80;;;;;;4990270;28;20475;-87
2023/09/12 11:20:16;;;;;;;9.67;8.67;;;25.90;93.70;;;;;;4973229;28;20484;-88
2023/09/12 11:22:48;;;;;;;9.93;9.03;;;25.90;93.70;;;;;;4990049;28;20421;-86
2023/09/12 11:25:22;;;;;;;9.47;8.17;;;25.90;93.70;;;;;;5002505;23;20485;-70
2023/09/12 11:27:51;;;;;;;10.70;9.73;;;25.90;93.60;;;;;;4983033;28;20487;-71
2023/09/12 11:30:18;;;;;;;10.00;8.93;;;26.00;93.80;;;;;;4982032;28;20476;-70
2023/09/12 11:32:50;;;;;;;9.97;8.97;;;26.00;93.70;;;;;;4983068;28;20417;-71
2023/09/12 11:35:26;;;;;;;10.50;9.20;;;26.00;93.60;;;;;;4981336;28;20461;-70
2023/09/12 11:38:02;;;;;;;10.10;9.20;;;26.00;93.50;;;;;;4964104;28;20472;-71
2023/09/12 11:40:33;;;;;;;9.90;8.80;;;26.00;93.50;;;;;;4982196;28;20448;-71
2023/09/12 11:43:00;;;;;;;11.40;9.70;;;26.00;93.40;;;;;;4964317;28;20433;-71
2023/09/12 11:45:32;;;;;;;10.67;9.57;;;26.00;93.40;;;;;;4982360;28;20409;-71
2023/09/12 11:47:58;;;;;;;10.13;9.23;;;26.10;93.40;;;;;;4979962;28;21272;-71
2023/09/12 11:50:32;;;;;;;10.03;9.13;;;26.10;93.50;;;;;;4947753;28;20453;-72
2023/09/12 11:53:11;;;;;;;10.73;9.30;;;26.10;93.50;;;;;;4982383;28;20456;-70
2023/09/12 11:55:54;;;;;;;10.57;9.67;;;26.10;93.50;;;;;;4981765;28;21405;-71
2023/09/12 11:58:21;;;;;;;11.17;10.17;;;26.10;93.40;;;;;;4979977;28;20456;-71
2023/09/12 12:00:49;;;;;;;11.07;10.17;;;26.10;93.30;;;;;;4979267;28;20443;-71
2023/09/12 12:03:18;;;;;;;11.07;9.97;;;26.10;93.30;;;;;;4979981;28;20461;-71
2023/09/12 12:05:44;;;;;;;11.00;10.10;;;26.10;93.30;;;;;;4980068;28;20574;-72
2023/09/12 12:08:11;;;;;;;12.43;11.20;;;26.10;93.30;;;;;;4963468;28;20429;-71
2023/09/12 12:10:41;;;;;;;9.77;8.77;;;26.20;93.30;;;;;;4978432;28;20441;-71
2023/09/12 12:13:12;;;;;;;10.97;10.07;;;26.20;93.20;;;;;;4978296;28;20436;-71
2023/09/12 12:15:40;;;;;;;10.40;9.43;;;26.20;93.20;;;;;;4979963;28;21144;-71
2023/09/12 12:18:07;;;;;;;11.47;10.50;;;26.20;93.10;;;;;;4979402;28;20514;-72
2023/09/12 12:20:38;;;;;;;11.30;10.13;;;26.20;93.10;;;;;;4977367;28;20489;-70
2023/09/12 12:23:06;;;;;;;10.67;9.77;;;26.20;93.10;;;;;;4978154;28;20420;-71
2023/09/12 12:25:34;;;;;;;10.60;9.80;;;26.30;93.10;;;;;;4961343;28;20546;-71
2023/09/12 12:28:00;;;;;;;11.17;10.10;;;26.30;93.40;;;;;;4977378;28;20434;-76
2023/09/12 12:30:30;;;;;;;10.20;9.40;;;26.30;93.00;;;;;;4948102;28;20464;-73
2023/09/12 12:33:00;;;;;;;11.27;10.27;;;26.30;93.00;;;;;;4979283;28;20495;-72
2023/09/12 12:35:26;;;;;;;11.40;10.30;;;26.30;93.00;;;;;;4963137;28;20512;-74
2023/09/12 12:37:58;;;;;;;10.87;9.97;;;26.40;92.90;;;;;;4979943;28;20961;-74
2023/09/12 12:40:26;;;;;;;10.83;9.83;;;26.30;92.90;;;;;;4964161;28;20448;-73
2023/09/12 12:42:52;;;;;;;10.10;9.30;;;26.40;92.80;;;;;;4980278;28;20523;-74
2023/09/12 12:45:25;;;;;;;9.83;9.03;;;26.40;92.80;;;;;;4979228;28;20437;-74
2023/09/12 12:47:58;;;;;;;10.03;9.17;;;26.40;92.70;;;;;;4961867;28;20441;-74
2023/09/12 12:50:29;;;;;;;10.10;9.20;;;26.40;92.70;;;;;;4976569;28;20950;-72